createdAt,value
2019-05-25T00:00:31.627Z,1007.57
2019-05-25T00:01:12.219Z,1007.56
2019-05-25T00:01:52.777Z,1007.56
2019-05-25T00:02:33.378Z,1007.52
2019-05-25T00:03:13.924Z,1007.49
2019-05-25T00:03:54.541Z,1007.54
2019-05-25T00:04:35.076Z,1007.52
2019-05-25T00:05:15.640Z,1007.51
2019-05-25T00:08:29.522Z,1007.57
2019-05-25T00:09:10.092Z,1007.57
2019-05-25T00:09:50.664Z,1007.57
2019-05-25T00:10:31.213Z,1007.53
2019-05-25T00:11:11.781Z,1007.55
2019-05-25T00:11:52.329Z,1007.54
2019-05-25T00:12:32.884Z,1007.56
2019-05-25T00:13:13.476Z,1007.56
2019-05-25T00:13:54.029Z,1007.54
2019-05-25T00:14:34.642Z,1007.55
2019-05-25T00:15:15.221Z,1007.54
2019-05-25T00:15:56.019Z,1007.56
2019-05-25T00:16:36.565Z,1007.58
2019-05-25T00:17:17.262Z,1007.59
2019-05-25T00:17:57.785Z,1007.58
2019-05-25T00:18:38.352Z,1007.56
2019-05-25T00:19:18.949Z,1007.58
2019-05-25T00:19:59.499Z,1007.59
2019-05-25T00:20:40.141Z,1007.57
2019-05-25T00:21:20.697Z,1007.58
2019-05-25T00:22:01.304Z,1007.59
2019-05-25T00:22:41.850Z,1007.61
2019-05-25T00:23:22.456Z,1007.6
2019-05-25T00:24:11.496Z,1007.61
2019-05-25T00:24:43.608Z,1007.59
2019-05-25T00:25:24.178Z,1007.59
2019-05-25T00:26:04.784Z,1007.62
2019-05-25T00:26:45.410Z,1007.65
2019-05-25T00:27:26.019Z,1007.65
2019-05-25T00:28:06.581Z,1007.65
2019-05-25T00:28:47.164Z,1007.64
2019-05-25T00:29:27.727Z,1007.63
2019-05-25T00:30:08.326Z,1007.62
2019-05-25T00:30:48.948Z,1007.65
2019-05-25T00:31:29.527Z,1007.63
2019-05-25T00:32:10.081Z,1007.64
2019-05-25T00:32:50.737Z,1007.65
2019-05-25T00:33:31.257Z,1007.67
2019-05-25T00:34:12.003Z,1007.66
2019-05-25T00:34:52.395Z,1007.66
2019-05-25T00:35:32.950Z,1007.68
2019-05-25T00:36:13.492Z,1007.7
2019-05-25T00:36:54.045Z,1007.72
2019-05-25T00:37:34.631Z,1007.71
2019-05-25T00:38:15.213Z,1007.7
2019-05-25T00:41:29.195Z,1007.74
2019-05-25T00:42:09.801Z,1007.78
2019-05-25T00:42:50.374Z,1007.71
2019-05-25T00:43:30.957Z,1007.74
2019-05-25T00:44:11.505Z,1007.78
2019-05-25T00:44:52.086Z,1007.77
2019-05-25T00:45:32.635Z,1007.74
2019-05-25T00:46:13.207Z,1007.78
2019-05-25T00:46:53.773Z,1007.77
2019-05-25T00:47:34.374Z,1007.75
2019-05-25T00:48:14.938Z,1007.78
2019-05-25T00:50:27.770Z,1007.8
2019-05-25T00:51:08.337Z,1007.8
2019-05-25T00:51:48.908Z,1007.8
2019-05-25T00:52:29.458Z,1007.84
2019-05-25T00:53:10.025Z,1007.81
2019-05-25T00:53:50.589Z,1007.79
2019-05-25T00:54:31.144Z,1007.8
2019-05-25T00:55:11.740Z,1007.81
2019-05-25T00:55:53.417Z,1007.81
2019-05-25T00:56:33.988Z,1007.78
2019-05-25T00:57:14.544Z,1007.8
2019-05-25T00:57:55.124Z,1007.81
2019-05-25T00:58:35.708Z,1007.82
2019-05-25T00:59:16.350Z,1007.79
2019-05-25T00:59:56.899Z,1007.83
2019-05-25T01:00:37.443Z,1007.85
2019-05-25T01:01:17.996Z,1007.82
2019-05-25T01:01:58.585Z,1007.81
2019-05-25T01:02:39.172Z,1007.83
2019-05-25T01:03:19.693Z,1007.85
2019-05-25T01:04:00.265Z,1007.81
2019-05-25T01:04:40.816Z,1007.8
2019-05-25T01:05:21.388Z,1007.85
2019-05-25T01:06:01.949Z,1007.85
2019-05-25T01:06:42.505Z,1007.86
2019-05-25T01:07:23.071Z,1007.86
2019-05-25T01:08:03.635Z,1007.86
2019-05-25T01:08:44.205Z,1007.89
2019-05-25T01:09:24.773Z,1007.85
2019-05-25T01:10:05.320Z,1007.84
2019-05-25T01:10:45.896Z,1007.83
2019-05-25T01:11:26.462Z,1007.89
2019-05-25T01:12:07.019Z,1007.85
2019-05-25T01:12:47.586Z,1007.85
2019-05-25T01:13:28.164Z,1007.88
2019-05-25T01:14:08.741Z,1007.89
2019-05-25T01:14:49.307Z,1007.93
2019-05-25T01:15:29.866Z,1007.89
2019-05-25T01:16:10.417Z,1007.91
2019-05-25T01:16:50.980Z,1007.89
2019-05-25T01:17:31.585Z,1007.89
2019-05-25T01:18:12.163Z,1007.88
2019-05-25T01:18:52.720Z,1007.89
2019-05-25T01:19:33.284Z,1007.9
2019-05-25T01:20:13.867Z,1007.88
2019-05-25T01:20:54.437Z,1007.89
2019-05-25T01:21:35.033Z,1007.89
2019-05-25T01:22:15.568Z,1007.86
2019-05-25T01:22:56.136Z,1007.86
2019-05-25T01:23:36.695Z,1007.91
2019-05-25T01:24:17.319Z,1007.89
2019-05-25T01:24:57.879Z,1007.89
2019-05-25T01:25:38.463Z,1007.93
2019-05-25T01:26:19.034Z,1007.92
2019-05-25T01:26:59.604Z,1007.97
2019-05-25T01:27:40.171Z,1007.93
2019-05-25T01:28:20.733Z,1007.93
2019-05-25T01:29:01.297Z,1007.98
2019-05-25T01:29:41.860Z,1007.99
2019-05-25T01:30:22.444Z,1007.97
2019-05-25T01:31:03.005Z,1007.95
2019-05-25T01:31:43.590Z,1007.98
2019-05-25T01:32:24.156Z,1007.96
2019-05-25T01:33:04.732Z,1007.94
2019-05-25T01:33:45.287Z,1007.99
2019-05-25T01:34:25.851Z,1007.96
2019-05-25T01:35:06.411Z,1007.96
2019-05-25T01:35:46.976Z,1007.96
2019-05-25T01:36:27.542Z,1007.97
2019-05-25T01:37:08.111Z,1007.97
2019-05-25T01:37:48.824Z,1007.96
2019-05-25T01:38:29.234Z,1007.97
2019-05-25T01:39:09.802Z,1007.98
2019-05-25T01:39:50.379Z,1007.97
2019-05-25T01:40:30.933Z,1007.99
2019-05-25T01:41:11.500Z,1007.93
2019-05-25T01:41:52.052Z,1007.96
2019-05-25T01:42:32.635Z,1007.92
2019-05-25T01:43:13.217Z,1007.91
2019-05-25T01:43:53.806Z,1007.93
2019-05-25T01:44:34.364Z,1007.94
2019-05-25T01:45:14.932Z,1007.92
2019-05-25T01:45:55.482Z,1007.95
2019-05-25T01:46:36.041Z,1007.97
2019-05-25T01:47:16.613Z,1007.97
2019-05-25T01:47:57.174Z,1007.96
2019-05-25T01:48:37.740Z,1007.97
2019-05-25T01:49:18.302Z,1007.96
2019-05-25T01:49:58.866Z,1007.99
2019-05-25T01:50:39.423Z,1007.97
2019-05-25T01:51:19.988Z,1008.01
2019-05-25T01:52:00.531Z,1007.99
2019-05-25T01:52:41.087Z,1007.98
2019-05-25T01:53:21.661Z,1008.03
2019-05-25T01:54:02.260Z,1008.01
2019-05-25T01:54:42.824Z,1008
2019-05-25T01:55:23.384Z,1008.03
2019-05-25T01:56:03.940Z,1008.03
2019-05-25T01:56:44.504Z,1008.01
2019-05-25T01:57:25.077Z,1008.03
2019-05-25T01:58:05.653Z,1008
2019-05-25T01:58:46.220Z,1008
2019-05-25T01:59:26.783Z,1008.05
2019-05-25T02:00:07.372Z,1008
2019-05-25T02:00:47.979Z,1008.02
2019-05-25T02:01:28.532Z,1008.02
2019-05-25T02:02:09.102Z,1008.05
2019-05-25T02:02:49.717Z,1008.05
2019-05-25T02:03:30.283Z,1008.04
2019-05-25T02:04:10.841Z,1008.04
2019-05-25T02:04:51.409Z,1008.03
2019-05-25T02:05:31.960Z,1008.08
2019-05-25T02:06:12.534Z,1008.07
2019-05-25T02:06:53.093Z,1008.09
2019-05-25T02:07:33.659Z,1008.08
2019-05-25T02:08:14.234Z,1008.06
2019-05-25T02:08:54.814Z,1008.07
2019-05-25T02:09:35.364Z,1008.05
2019-05-25T02:10:15.927Z,1008.08
2019-05-25T02:10:56.482Z,1008.09
2019-05-25T02:11:37.059Z,1008.11
2019-05-25T02:12:17.639Z,1008.07
2019-05-25T02:12:58.201Z,1008.08
2019-05-25T02:13:38.754Z,1008.1
2019-05-25T02:14:19.318Z,1008.09
2019-05-25T02:14:59.877Z,1008.08
2019-05-25T02:15:40.426Z,1008.11
2019-05-25T02:16:20.991Z,1008.06
2019-05-25T02:17:01.541Z,1008.09
2019-05-25T02:17:42.099Z,1008.1
2019-05-25T02:18:22.655Z,1008.09
2019-05-25T02:19:03.208Z,1008.07
2019-05-25T02:19:43.773Z,1008.11
2019-05-25T02:20:24.337Z,1008.07
2019-05-25T02:21:04.896Z,1008.1
2019-05-25T02:21:45.473Z,1008.11
2019-05-25T02:22:26.038Z,1008.1
2019-05-25T02:23:06.610Z,1008.11
2019-05-25T02:23:47.181Z,1008.14
2019-05-25T02:24:27.747Z,1008.15
2019-05-25T02:25:17.450Z,1008.11
2019-05-25T02:25:48.872Z,1008.16
2019-05-25T02:26:29.463Z,1008.13
2019-05-25T02:27:10.050Z,1008.13
2019-05-25T02:27:50.613Z,1008.14
2019-05-25T02:28:31.197Z,1008.14
2019-05-25T02:29:11.749Z,1008.13
2019-05-25T02:29:52.307Z,1008.14
2019-05-25T02:30:32.870Z,1008.13
2019-05-25T02:31:13.426Z,1008.18
2019-05-25T02:31:53.993Z,1008.19
2019-05-25T02:32:34.561Z,1008.22
2019-05-25T02:33:15.122Z,1008.2
2019-05-25T02:33:55.692Z,1008.23
2019-05-25T02:34:36.249Z,1008.27
2019-05-25T02:35:16.819Z,1008.24
2019-05-25T02:35:57.412Z,1008.25
2019-05-25T02:36:37.964Z,1008.27
2019-05-25T02:37:18.514Z,1008.25
2019-05-25T02:37:59.084Z,1008.26
2019-05-25T02:38:39.660Z,1008.25
2019-05-25T02:39:20.223Z,1008.27
2019-05-25T02:40:00.770Z,1008.26
2019-05-25T02:40:41.329Z,1008.27
2019-05-25T02:41:21.878Z,1008.27
2019-05-25T02:42:02.426Z,1008.34
2019-05-25T02:42:42.982Z,1008.28
2019-05-25T02:43:23.544Z,1008.28
2019-05-25T02:44:04.106Z,1008.3
2019-05-25T02:44:44.667Z,1008.28
2019-05-25T02:45:25.229Z,1008.28
2019-05-25T02:46:05.785Z,1008.3
2019-05-25T02:46:46.333Z,1008.28
2019-05-25T02:47:26.910Z,1008.29
2019-05-25T02:48:07.479Z,1008.25
2019-05-25T02:48:48.049Z,1008.25
2019-05-25T02:49:28.644Z,1008.21
2019-05-25T02:50:09.211Z,1008.2
2019-05-25T02:50:52.928Z,1008.24
2019-05-25T02:51:30.331Z,1008.19
2019-05-25T02:52:10.898Z,1008.18
2019-05-25T02:52:51.494Z,1008.18
2019-05-25T02:53:32.035Z,1008.16
2019-05-25T02:54:12.594Z,1008.17
2019-05-25T02:54:53.166Z,1008.17
2019-05-25T02:55:35.061Z,1008.21
2019-05-25T02:56:14.295Z,1008.2
2019-05-25T02:56:54.871Z,1008.24
2019-05-25T02:57:35.442Z,1008.2
2019-05-25T02:58:16.003Z,1008.26
2019-05-25T02:58:56.570Z,1008.23
2019-05-25T02:59:37.126Z,1008.27
2019-05-25T03:00:17.689Z,1008.26
2019-05-25T03:00:58.242Z,1008.27
2019-05-25T03:01:38.809Z,1008.28
2019-05-25T03:02:19.352Z,1008.28
2019-05-25T03:02:59.947Z,1008.31
2019-05-25T03:03:40.510Z,1008.28
2019-05-25T03:04:21.074Z,1008.3
2019-05-25T03:05:01.629Z,1008.31
2019-05-25T03:05:42.203Z,1008.3
2019-05-25T03:06:22.749Z,1008.28
2019-05-25T03:07:03.309Z,1008.31
2019-05-25T03:07:43.866Z,1008.33
2019-05-25T03:08:24.423Z,1008.31
2019-05-25T03:09:04.979Z,1008.34
2019-05-25T03:09:45.536Z,1008.38
2019-05-25T03:10:26.112Z,1008.35
2019-05-25T03:11:06.661Z,1008.37
2019-05-25T03:11:47.238Z,1008.37
2019-05-25T03:12:27.788Z,1008.4
2019-05-25T03:13:08.398Z,1008.37
2019-05-25T03:13:48.901Z,1008.37
2019-05-25T03:14:29.466Z,1008.38
2019-05-25T03:15:10.031Z,1008.36
2019-05-25T03:15:50.593Z,1008.35
2019-05-25T03:16:31.186Z,1008.41
2019-05-25T03:17:11.752Z,1008.37
2019-05-25T03:17:52.335Z,1008.36
2019-05-25T03:18:32.899Z,1008.4
2019-05-25T03:19:13.459Z,1008.39
2019-05-25T03:19:54.017Z,1008.38
2019-05-25T03:20:34.579Z,1008.45
2019-05-25T03:21:15.123Z,1008.41
2019-05-25T03:21:55.697Z,1008.43
2019-05-25T03:22:36.249Z,1008.47
2019-05-25T03:23:16.824Z,1008.38
2019-05-25T03:23:57.378Z,1008.41
2019-05-25T03:24:37.949Z,1008.4
2019-05-25T03:25:18.501Z,1008.43
2019-05-25T03:25:59.074Z,1008.42
2019-05-25T03:26:39.642Z,1008.45
2019-05-25T03:27:20.205Z,1008.44
2019-05-25T03:28:00.870Z,1008.44
2019-05-25T03:28:41.374Z,1008.47
2019-05-25T03:29:21.916Z,1008.46
2019-05-25T03:30:02.518Z,1008.44
2019-05-25T03:30:43.071Z,1008.45
2019-05-25T03:31:23.649Z,1008.5
2019-05-25T03:32:04.215Z,1008.46
2019-05-25T03:32:44.772Z,1008.48
2019-05-25T03:33:25.335Z,1008.55
2019-05-25T03:34:05.917Z,1008.5
2019-05-25T03:34:46.485Z,1008.51
2019-05-25T03:35:27.067Z,1008.52
2019-05-25T03:36:07.637Z,1008.54
2019-05-25T03:36:48.181Z,1008.53
2019-05-25T03:37:28.772Z,1008.57
2019-05-25T03:38:09.324Z,1008.59
2019-05-25T03:38:49.886Z,1008.58
2019-05-25T03:39:30.450Z,1008.58
2019-05-25T03:40:11.037Z,1008.58
2019-05-25T03:40:51.585Z,1008.6
2019-05-25T03:41:32.161Z,1008.65
2019-05-25T03:42:12.735Z,1008.61
2019-05-25T03:42:53.304Z,1008.61
2019-05-25T03:43:33.859Z,1008.65
2019-05-25T03:44:14.453Z,1008.62
2019-05-25T03:44:55.041Z,1008.64
2019-05-25T03:45:35.596Z,1008.67
2019-05-25T03:46:16.193Z,1008.7
2019-05-25T03:46:56.750Z,1008.67
2019-05-25T03:47:37.331Z,1008.65
2019-05-25T03:48:17.913Z,1008.65
2019-05-25T03:48:58.484Z,1008.67
2019-05-25T03:49:39.033Z,1008.64
2019-05-25T03:50:19.595Z,1008.65
2019-05-25T03:51:00.171Z,1008.64
2019-05-25T03:51:40.733Z,1008.6
2019-05-25T03:52:21.313Z,1008.63
2019-05-25T03:53:01.893Z,1008.67
2019-05-25T03:53:42.467Z,1008.67
2019-05-25T03:54:23.043Z,1008.64
2019-05-25T03:55:03.615Z,1008.66
2019-05-25T03:55:44.169Z,1008.64
2019-05-25T03:56:24.745Z,1008.64
2019-05-25T03:57:05.300Z,1008.62
2019-05-25T03:57:45.863Z,1008.66
2019-05-25T03:58:26.411Z,1008.67
2019-05-25T03:59:06.973Z,1008.63
2019-05-25T03:59:47.524Z,1008.61
2019-05-25T04:00:28.105Z,1008.63
2019-05-25T04:01:08.664Z,1008.65
2019-05-25T04:01:49.219Z,1008.69
2019-05-25T04:02:29.776Z,1008.66
2019-05-25T04:03:10.346Z,1008.64
2019-05-25T04:03:50.938Z,1008.66
2019-05-25T04:04:31.524Z,1008.61
2019-05-25T04:05:12.116Z,1008.64
2019-05-25T04:05:52.709Z,1008.64
2019-05-25T04:06:33.297Z,1008.62
2019-05-25T04:07:13.882Z,1008.61
2019-05-25T04:07:54.423Z,1008.62
2019-05-25T04:08:34.987Z,1008.63
2019-05-25T04:09:15.565Z,1008.58
2019-05-25T04:09:56.164Z,1008.63
2019-05-25T04:10:38.750Z,1008.65
2019-05-25T04:11:17.309Z,1008.63
2019-05-25T04:11:57.872Z,1008.62
2019-05-25T04:12:38.444Z,1008.62
2019-05-25T04:13:18.995Z,1008.59
2019-05-25T04:13:59.562Z,1008.62
2019-05-25T04:14:40.125Z,1008.6
2019-05-25T04:15:20.701Z,1008.66
2019-05-25T04:16:01.271Z,1008.64
2019-05-25T04:16:41.827Z,1008.58
2019-05-25T04:17:22.387Z,1008.64
2019-05-25T04:18:02.971Z,1008.65
2019-05-25T04:18:43.526Z,1008.64
2019-05-25T04:19:24.087Z,1008.61
2019-05-25T04:20:04.647Z,1008.6
2019-05-25T04:20:45.236Z,1008.6
2019-05-25T04:21:25.822Z,1008.62
2019-05-25T04:22:06.372Z,1008.62
2019-05-25T04:22:46.939Z,1008.61
2019-05-25T04:23:27.519Z,1008.64
2019-05-25T04:24:08.067Z,1008.62
2019-05-25T04:24:48.695Z,1008.63
2019-05-25T04:25:29.269Z,1008.66
2019-05-25T04:26:21.749Z,1008.71
2019-05-25T04:26:50.413Z,1008.69
2019-05-25T04:27:30.991Z,1008.7
2019-05-25T04:28:11.551Z,1008.73
2019-05-25T04:28:52.116Z,1008.74
2019-05-25T04:29:32.695Z,1008.75
2019-05-25T04:30:13.263Z,1008.77
2019-05-25T04:30:53.814Z,1008.76
2019-05-25T04:31:34.410Z,1008.79
2019-05-25T04:32:14.986Z,1008.81
2019-05-25T04:32:55.549Z,1008.8
2019-05-25T04:33:36.129Z,1008.88
2019-05-25T04:34:16.706Z,1008.82
2019-05-25T04:34:57.269Z,1008.86
2019-05-25T04:35:37.833Z,1008.9
2019-05-25T04:36:18.403Z,1008.88
2019-05-25T04:36:58.985Z,1008.89
2019-05-25T04:37:39.554Z,1008.89
2019-05-25T04:38:20.116Z,1008.92
2019-05-25T04:39:00.678Z,1008.88
2019-05-25T04:39:41.255Z,1008.89
2019-05-25T04:40:23.056Z,1008.89
2019-05-25T04:41:02.375Z,1008.88
2019-05-25T04:41:42.935Z,1008.91
2019-05-25T04:42:23.539Z,1008.88
2019-05-25T04:43:04.100Z,1008.93
2019-05-25T04:43:44.664Z,1008.93
2019-05-25T04:44:25.255Z,1008.94
2019-05-25T04:45:05.823Z,1008.93
2019-05-25T04:45:46.393Z,1008.92
2019-05-25T04:46:26.977Z,1008.94
2019-05-25T04:47:07.534Z,1008.93
2019-05-25T04:47:48.114Z,1008.95
2019-05-25T04:48:28.688Z,1008.93
2019-05-25T04:49:09.253Z,1008.92
2019-05-25T04:49:49.811Z,1008.94
2019-05-25T04:50:30.394Z,1008.98
2019-05-25T04:51:11.133Z,1008.99
2019-05-25T04:51:51.719Z,1008.97
2019-05-25T04:52:32.289Z,1009.01
2019-05-25T04:53:12.836Z,1009.01
2019-05-25T04:53:53.391Z,1009.03
2019-05-25T04:54:33.940Z,1009.08
2019-05-25T04:55:14.495Z,1009
2019-05-25T04:55:55.053Z,1009.06
2019-05-25T04:56:39.227Z,1009.05
2019-05-25T04:57:16.212Z,1009.05
2019-05-25T04:57:56.755Z,1009.08
2019-05-25T04:58:37.351Z,1009.07
2019-05-25T04:59:17.901Z,1009.1
2019-05-25T04:59:58.468Z,1009.06
2019-05-25T05:00:39.035Z,1009.13
2019-05-25T05:01:22.395Z,1009.1
2019-05-25T05:02:00.196Z,1009.09
2019-05-25T05:02:40.760Z,1009.12
2019-05-25T05:03:21.342Z,1009.1
2019-05-25T05:04:01.909Z,1009.1
2019-05-25T05:04:42.470Z,1009.11
2019-05-25T05:05:23.041Z,1009.09
2019-05-25T05:06:03.606Z,1009.12
2019-05-25T05:06:44.160Z,1009.13
2019-05-25T05:07:24.774Z,1009.13
2019-05-25T05:08:05.350Z,1009.11
2019-05-25T05:08:45.920Z,1009.12
2019-05-25T05:09:26.468Z,1009.13
2019-05-25T05:10:07.018Z,1009.12
2019-05-25T05:10:47.572Z,1009.14
2019-05-25T05:11:28.129Z,1009.15
2019-05-25T05:12:08.717Z,1009.19
2019-05-25T05:12:49.292Z,1009.14
2019-05-25T05:13:29.850Z,1009.12
2019-05-25T05:14:10.431Z,1009.09
2019-05-25T05:14:50.995Z,1009.09
2019-05-25T05:15:31.546Z,1009.12
2019-05-25T05:16:12.114Z,1009.12
2019-05-25T05:16:52.674Z,1009.11
2019-05-25T05:17:33.247Z,1009.08
2019-05-25T05:18:13.830Z,1009.16
2019-05-25T05:18:54.390Z,1009.2
2019-05-25T05:19:34.939Z,1009.15
2019-05-25T05:20:15.512Z,1009.17
2019-05-25T05:20:56.071Z,1009.18
2019-05-25T05:21:36.623Z,1009.11
2019-05-25T05:22:17.229Z,1009.17
2019-05-25T05:22:57.799Z,1009.17
2019-05-25T05:23:38.370Z,1009.13
2019-05-25T05:24:18.939Z,1009.2
2019-05-25T05:24:59.582Z,1009.2
2019-05-25T05:25:40.163Z,1009.18
2019-05-25T05:26:20.741Z,1009.16
2019-05-25T05:27:01.322Z,1009.23
2019-05-25T05:27:41.884Z,1009.35
2019-05-25T05:28:22.441Z,1009.43
2019-05-25T05:29:02.993Z,1009.47
2019-05-25T05:29:43.568Z,1009.48
2019-05-25T05:30:24.137Z,1009.47
2019-05-25T05:31:04.702Z,1009.53
2019-05-25T05:31:45.285Z,1009.51
2019-05-25T05:32:27.729Z,1009.59
2019-05-25T05:33:06.374Z,1009.54
2019-05-25T05:33:46.934Z,1009.55
2019-05-25T05:34:27.518Z,1009.61
2019-05-25T05:35:08.242Z,1009.64
2019-05-25T05:35:48.645Z,1009.65
2019-05-25T05:36:29.258Z,1009.67
2019-05-25T05:37:09.800Z,1009.73
2019-05-25T05:37:50.495Z,1009.73
2019-05-25T05:38:31.140Z,1009.79
2019-05-25T05:39:11.702Z,1009.77
2019-05-25T05:39:52.298Z,1009.71
2019-05-25T05:40:32.861Z,1009.7
2019-05-25T05:41:13.459Z,1009.52
2019-05-25T05:41:54.020Z,1009.56
2019-05-25T05:42:34.597Z,1009.66
2019-05-25T05:43:15.155Z,1009.8
2019-05-25T05:43:55.718Z,1009.93
2019-05-25T05:44:36.312Z,1009.98
2019-05-25T05:45:16.894Z,1010.03
2019-05-25T05:45:57.458Z,1010.08
2019-05-25T05:46:38.042Z,1010.16
2019-05-25T05:47:18.604Z,1010.24
2019-05-25T05:47:59.188Z,1010.22
2019-05-25T05:48:39.769Z,1010.32
2019-05-25T05:49:20.343Z,1010.32
2019-05-25T05:50:00.927Z,1010.41
2019-05-25T05:50:41.486Z,1010.47
2019-05-25T05:51:22.050Z,1010.58
2019-05-25T05:52:02.622Z,1010.61
2019-05-25T05:52:43.210Z,1010.61
2019-05-25T05:53:23.790Z,1010.65
2019-05-25T05:54:04.403Z,1010.73
2019-05-25T05:54:44.990Z,1010.97
2019-05-25T05:55:25.566Z,1011
2019-05-25T05:56:06.134Z,1011.16
2019-05-25T05:56:46.710Z,1011.18
2019-05-25T05:57:27.294Z,1011.25
2019-05-25T05:58:07.889Z,1011.19
2019-05-25T05:58:48.475Z,1011.23
2019-05-25T05:59:29.065Z,1011.15
2019-05-25T06:00:09.637Z,1011.19
2019-05-25T06:00:50.217Z,1011.21
2019-05-25T06:01:30.786Z,1011.26
2019-05-25T06:02:11.384Z,1011.18
2019-05-25T06:02:51.907Z,1011.24
2019-05-25T06:03:32.526Z,1011.15
2019-05-25T06:04:13.134Z,1011.11
2019-05-25T06:04:53.737Z,1010.96
2019-05-25T06:05:34.331Z,1010.82
2019-05-25T06:06:14.899Z,1010.7
2019-05-25T06:06:55.463Z,1010.7
2019-05-25T06:07:36.024Z,1010.61
2019-05-25T06:08:16.591Z,1010.5
2019-05-25T06:08:57.158Z,1010.49
2019-05-25T06:09:37.727Z,1010.46
2019-05-25T06:10:18.305Z,1010.47
2019-05-25T06:10:58.883Z,1010.46
2019-05-25T06:11:39.460Z,1010.39
2019-05-25T06:12:20.026Z,1010.38
2019-05-25T06:13:00.621Z,1010.17
2019-05-25T06:13:41.236Z,1010.28
2019-05-25T06:14:21.806Z,1010.26
2019-05-25T06:15:02.548Z,1010.2
2019-05-25T06:15:42.980Z,1010.21
2019-05-25T06:16:23.543Z,1010.31
2019-05-25T06:17:04.119Z,1010.32
2019-05-25T06:17:44.698Z,1010.28
2019-05-25T06:18:25.275Z,1010.29
2019-05-25T06:19:05.896Z,1010.22
2019-05-25T06:19:46.473Z,1010.3
2019-05-25T06:20:27.043Z,1010.26
2019-05-25T06:21:07.632Z,1010.27
2019-05-25T06:21:48.206Z,1010.24
2019-05-25T06:22:28.810Z,1010.17
2019-05-25T06:23:12.271Z,1010.18
2019-05-25T06:23:49.957Z,1010.29
2019-05-25T06:24:30.527Z,1010.24
2019-05-25T06:25:11.087Z,1010.25
2019-05-25T06:25:51.664Z,1010.25
2019-05-25T06:26:32.232Z,1010.28
2019-05-25T06:27:26.271Z,1010.32
2019-05-25T06:27:53.570Z,1010.29
2019-05-25T06:28:34.171Z,1010.31
2019-05-25T06:29:15.091Z,1010.3
2019-05-25T06:29:55.851Z,1010.24
2019-05-25T06:30:36.532Z,1009.85
2019-05-25T06:31:17.366Z,1010.45
2019-05-25T06:31:57.858Z,1009.9
2019-05-25T06:32:38.478Z,1009.92
2019-05-25T06:33:19.316Z,1010.4
2019-05-25T06:34:00.336Z,1010.15
2019-05-25T06:37:14.320Z,1009.89
2019-05-25T06:37:54.924Z,1010.12
2019-05-25T06:38:35.551Z,1009.85
2019-05-25T06:39:16.187Z,1009.89
2019-05-25T06:39:56.743Z,1009.91
2019-05-25T06:40:37.385Z,1009.9
2019-05-25T06:41:18.049Z,1009.89
2019-05-25T06:41:58.625Z,1010.13
2019-05-25T06:42:39.275Z,1010.11
2019-05-25T06:43:19.838Z,1009.98
2019-05-25T06:44:00.404Z,1009.94
2019-05-25T06:44:40.965Z,1009.96
2019-05-25T06:45:21.533Z,1009.98
2019-05-25T06:46:02.151Z,1010.17
2019-05-25T06:46:42.706Z,1009.98
2019-05-25T06:47:23.259Z,1009.96
2019-05-25T06:48:03.906Z,1010.16
2019-05-25T06:48:44.514Z,1010.03
2019-05-25T06:49:25.119Z,1009.99
2019-05-25T06:50:05.716Z,1010.02
2019-05-25T06:50:47.717Z,1010.05
2019-05-25T06:51:28.278Z,1010.11
2019-05-25T06:52:08.875Z,1010.03
2019-05-25T06:52:49.577Z,1010.02
2019-05-25T06:53:30.568Z,1010.04
2019-05-25T06:54:11.170Z,1010.03
2019-05-25T06:57:10.116Z,1010.03
2019-05-25T06:57:50.720Z,1010.03
2019-05-25T06:58:31.289Z,1010.06
2019-05-25T06:59:11.864Z,1010.24
2019-05-25T06:59:52.509Z,1010.2
2019-05-25T07:00:33.132Z,1010.16
2019-05-25T07:01:13.714Z,1010.04
2019-05-25T07:01:54.298Z,1010.03
2019-05-25T07:02:34.859Z,1010.03
2019-05-25T07:03:15.423Z,1010.05
2019-05-25T07:03:55.993Z,1010.02
2019-05-25T07:06:54.853Z,1010.15
2019-05-25T07:07:35.427Z,1010.11
2019-05-25T07:08:16.001Z,1010.13
2019-05-25T07:08:56.597Z,1010.07
2019-05-25T07:09:37.170Z,1010.15
2019-05-25T07:10:17.736Z,1010.16
2019-05-25T07:10:58.309Z,1010.08
2019-05-25T07:11:38.940Z,1010.13
2019-05-25T07:12:19.700Z,1010.14
2019-05-25T07:13:00.302Z,1010.14
2019-05-25T07:13:40.857Z,1010.11
2019-05-25T07:14:21.505Z,1010.15
2019-05-25T07:15:02.225Z,1010.16
2019-05-25T07:15:43.635Z,1010.13
2019-05-25T07:16:24.388Z,1010.12
2019-05-25T07:17:05.065Z,1010.12
2019-05-25T07:17:45.782Z,1010.18
2019-05-25T07:18:26.338Z,1010.18
2019-05-25T07:19:06.952Z,1010.11
2019-05-25T07:19:47.525Z,1010.16
2019-05-25T07:20:28.098Z,1010.08
2019-05-25T07:21:08.663Z,1010.1
2019-05-25T07:21:49.224Z,1010.1
2019-05-25T07:22:29.797Z,1010.09
2019-05-25T07:23:10.363Z,1010.04
2019-05-25T07:23:50.929Z,1010.11
2019-05-25T07:24:31.502Z,1010.09
2019-05-25T07:25:12.087Z,1010.12
2019-05-25T07:25:52.656Z,1010.11
2019-05-25T07:26:33.267Z,1010.13
2019-05-25T07:27:13.951Z,1010.13
2019-05-25T07:27:59.414Z,1010.1
2019-05-25T07:28:35.918Z,1010.1
2019-05-25T07:29:16.478Z,1010.09
2019-05-25T07:29:57.055Z,1010.13
2019-05-25T07:30:37.620Z,1010.13
2019-05-25T07:31:18.217Z,1010.15
2019-05-25T07:31:58.789Z,1010.12
2019-05-25T07:32:39.361Z,1010.12
2019-05-25T07:33:19.956Z,1010.14
2019-05-25T07:34:00.536Z,1010.18
2019-05-25T07:34:41.100Z,1010.16
2019-05-25T07:35:21.702Z,1010.15
2019-05-25T07:36:07.104Z,1010.16
2019-05-25T07:36:42.825Z,1010.17
2019-05-25T07:37:23.403Z,1010.18
2019-05-25T07:38:04.143Z,1010.19
2019-05-25T07:38:44.659Z,1010.19
2019-05-25T07:39:25.238Z,1010.19
2019-05-25T07:40:05.826Z,1010.18
2019-05-25T07:40:46.390Z,1010.19
2019-05-25T07:41:27.068Z,1010.2
2019-05-25T07:42:07.642Z,1010.23
2019-05-25T07:42:48.248Z,1010.22
2019-05-25T07:43:28.787Z,1010.19
2019-05-25T07:44:09.441Z,1010.25
2019-05-25T07:44:49.966Z,1010.24
2019-05-25T07:45:30.545Z,1010.17
2019-05-25T07:46:11.143Z,1010.22
2019-05-25T07:46:51.696Z,1010.22
2019-05-25T07:47:32.365Z,1010.23
2019-05-25T07:48:13.007Z,1010.23
2019-05-25T07:48:53.614Z,1010.2
2019-05-25T07:49:34.182Z,1010.22
2019-05-25T07:50:14.744Z,1010.2
2019-05-25T07:50:55.321Z,1010.17
2019-05-25T07:51:35.871Z,1010.18
2019-05-25T07:52:16.440Z,1010.18
2019-05-25T07:52:57.034Z,1010.18
2019-05-25T07:53:37.603Z,1010.18
2019-05-25T07:54:18.167Z,1010.17
2019-05-25T07:54:58.751Z,1010.16
2019-05-25T07:55:39.315Z,1010.22
2019-05-25T07:56:19.880Z,1010.24
2019-05-25T07:57:00.451Z,1010.2
2019-05-25T07:57:41.022Z,1010.23
2019-05-25T07:58:21.592Z,1010.2
2019-05-25T07:59:02.164Z,1010.22
2019-05-25T07:59:42.741Z,1010.21
2019-05-25T08:00:23.302Z,1010.23
2019-05-25T08:01:03.873Z,1010.18
2019-05-25T08:01:44.432Z,1010.22
2019-05-25T08:02:25.021Z,1010.21
2019-05-25T08:03:05.586Z,1010.23
2019-05-25T08:03:46.149Z,1010.23
2019-05-25T08:04:26.755Z,1010.23
2019-05-25T08:05:07.330Z,1010.3
2019-05-25T08:05:47.946Z,1010.31
2019-05-25T08:06:28.538Z,1010.26
2019-05-25T08:07:09.100Z,1010.24
2019-05-25T08:07:49.702Z,1010.25
2019-05-25T08:08:30.270Z,1010.28
2019-05-25T08:09:10.857Z,1010.26
2019-05-25T08:09:51.418Z,1010.28
2019-05-25T08:10:31.987Z,1010.27
2019-05-25T08:11:12.550Z,1010.24
2019-05-25T08:11:53.157Z,1010.3
2019-05-25T08:12:33.739Z,1010.3
2019-05-25T08:13:14.335Z,1010.31
2019-05-25T08:13:54.893Z,1010.34
2019-05-25T08:14:35.459Z,1010.35
2019-05-25T08:15:16.028Z,1010.31
2019-05-25T08:15:56.640Z,1010.33
2019-05-25T08:16:37.149Z,1010.38
2019-05-25T08:17:17.731Z,1010.33
2019-05-25T08:17:58.347Z,1010.32
2019-05-25T08:18:38.926Z,1010.33
2019-05-25T08:19:19.700Z,1010.33
2019-05-25T08:20:00.274Z,1010.32
2019-05-25T08:20:40.885Z,1010.35
2019-05-25T08:21:22.620Z,1010.36
2019-05-25T08:22:03.198Z,1010.33
2019-05-25T08:22:44.153Z,1010.4
2019-05-25T08:23:26.814Z,1010.39
2019-05-25T08:24:07.146Z,1010.33
2019-05-25T08:24:47.712Z,1010.37
2019-05-25T08:25:28.279Z,1010.38
2019-05-25T08:26:08.835Z,1010.37
2019-05-25T08:26:49.390Z,1010.36